Prescott, Arizona
Current Conditions -  °F | °C
As of 4:53 AM on Monday 24 Nov 2014 (Local Time) from KPRC Reporting Station
Clear Clear  
Wind Chill: 18°   Ceiling: Unl
Heat Index: 24°   Visibility: 10mi
Dew Point:   Wind: 5mph
Humidity: 42%   Direction: 210°SSW
Pressure: 30.23"   Gusts: NA
Location:  34.54°N, 112.47°W
Report Text: KPRC 241153Z AUTO 21004KT 10SM CLR M04/M16 A3023 RMK AO2 SLP228 T10441156 10011 21044 58003
Loading
Personal Weather Stations






























Interactive Weather Map New forecast layout! Learn more

10-Day Weather Forecast

Advertisements
Track Severe Weather on mobile